createdAt,value
2022-08-23T00:01:25.457Z,4.12
2022-08-23T00:03:55.340Z,4.05
2022-08-23T00:06:23.884Z,4.35
2022-08-23T00:08:52.598Z,4.10
2022-08-23T00:11:51.017Z,4.72
2022-08-23T00:14:29.750Z,4.07
2022-08-23T00:16:58.222Z,4.35
2022-08-23T00:19:25.923Z,4.30
2022-08-23T00:21:54.879Z,4.57
2022-08-23T00:24:24.068Z,4.70
2022-08-23T00:27:05.189Z,4.70
2022-08-23T00:29:39.204Z,4.70
2022-08-23T00:32:08.871Z,4.70
2022-08-23T00:34:37.202Z,4.68
2022-08-23T00:37:05.891Z,4.95
2022-08-23T00:39:33.239Z,5.05
2022-08-23T00:42:31.151Z,5.07
2022-08-23T00:45:19.512Z,4.95
2022-08-23T00:47:47.197Z,5.90
2022-08-23T00:50:45.937Z,6.25
2022-08-23T00:53:22.970Z,6.78
2022-08-23T00:55:52.831Z,7.53
2022-08-23T00:58:21.265Z,6.72
2022-08-23T01:00:50.524Z,6.78
2022-08-23T01:03:19.516Z,7.57
2022-08-23T01:06:17.548Z,7.65
2022-08-23T01:08:52.828Z,7.85
2022-08-23T01:11:25.364Z,7.65
2022-08-23T01:14:00.402Z,7.80
2022-08-23T01:16:33.671Z,7.80
2022-08-23T01:19:03.636Z,7.72
2022-08-23T01:21:47.316Z,7.50
2022-08-23T01:24:19.122Z,8.77
2022-08-23T01:27:04.044Z,7.95
2022-08-23T01:29:31.473Z,8.77
2022-08-23T01:32:00.777Z,8.98
2022-08-23T01:34:29.281Z,8.13
2022-08-23T01:36:59.819Z,8.63
2022-08-23T01:39:27.271Z,8.27
2022-08-23T01:41:55.168Z,8.52
2022-08-23T01:44:22.804Z,8.90
2022-08-23T01:46:58.070Z,8.73
2022-08-23T01:49:25.550Z,9.27
2022-08-23T01:51:53.119Z,8.85
2022-08-23T01:54:21.224Z,8.68
2022-08-23T01:56:49.206Z,9.27
2022-08-23T01:59:16.860Z,8.93
2022-08-23T02:01:44.925Z,8.43
2022-08-23T02:04:12.665Z,9.20
2022-08-23T02:06:40.163Z,9.52
2022-08-23T02:09:15.965Z,9.20
2022-08-23T02:11:45.755Z,9.63
2022-08-23T02:14:19.665Z,9.90
2022-08-23T02:17:02.993Z,9.38
2022-08-23T02:19:34.315Z,9.88
2022-08-23T02:22:03.515Z,10.68
2022-08-23T02:24:31.805Z,9.68
2022-08-23T02:27:02.943Z,9.80
2022-08-23T02:29:30.934Z,10.27
2022-08-23T02:31:59.957Z,11.95
2022-08-23T02:34:28.732Z,10.57
2022-08-23T02:36:56.738Z,10.27
2022-08-23T02:39:24.631Z,10.02
2022-08-23T02:41:51.971Z,10.05
2022-08-23T02:44:20.223Z,10.63
2022-08-23T02:46:47.899Z,10.52
2022-08-23T02:49:17.009Z,10.48
2022-08-23T02:51:45.703Z,11.30
2022-08-23T02:54:13.277Z,11.07
2022-08-23T02:56:41.058Z,10.30
2022-08-23T02:59:08.845Z,10.38
2022-08-23T03:01:38.990Z,10.88
2022-08-23T03:04:09.823Z,9.88
2022-08-23T03:06:38.309Z,10.48
2022-08-23T03:09:07.402Z,10.07
2022-08-23T03:11:35.069Z,9.10
2022-08-23T03:14:02.751Z,10.10
2022-08-23T03:16:30.248Z,9.70
2022-08-23T03:18:57.696Z,8.68
2022-08-23T03:21:25.408Z,9.40
2022-08-23T03:23:52.870Z,8.25
2022-08-23T03:26:21.296Z,8.40
2022-08-23T03:28:48.891Z,8.63
2022-08-23T03:31:17.256Z,8.75
2022-08-23T03:33:45.486Z,7.95
2022-08-23T03:36:13.360Z,7.95
2022-08-23T03:38:41.550Z,8.23
2022-08-23T03:41:10.095Z,8.43
2022-08-23T03:43:38.091Z,9.57
2022-08-23T03:46:06.539Z,9.30
2022-08-23T03:48:34.568Z,9.00
2022-08-23T03:51:02.607Z,9.02
2022-08-23T03:53:30.411Z,9.52
2022-08-23T03:55:58.057Z,9.30
2022-08-23T03:58:25.920Z,9.75
2022-08-23T04:00:53.627Z,8.45
2022-08-23T04:03:21.419Z,8.95
2022-08-23T04:05:50.385Z,10.50
2022-08-23T04:08:26.996Z,9.38
2022-08-23T04:11:02.588Z,10.30
2022-08-23T04:13:30.094Z,9.40
2022-08-23T04:15:58.296Z,10.35
2022-08-23T04:18:25.963Z,12.20
2022-08-23T04:20:53.515Z,10.73
2022-08-23T04:23:21.256Z,11.07
2022-08-23T04:25:49.283Z,11.35
2022-08-23T04:28:17.410Z,12.40
2022-08-23T04:30:45.737Z,11.77
2022-08-23T04:33:17.831Z,11.75
2022-08-23T04:35:46.242Z,10.27
2022-08-23T04:38:24.247Z,11.68
2022-08-23T04:41:12.293Z,11.30
2022-08-23T04:43:40.638Z,11.52
2022-08-23T04:46:09.836Z,12.07
2022-08-23T04:48:37.500Z,12.07
2022-08-23T04:51:05.906Z,11.75
2022-08-23T04:53:35.287Z,11.70
2022-08-23T04:56:04.406Z,11.40
2022-08-23T04:58:33.125Z,11.60
2022-08-23T05:01:03.364Z,11.57
2022-08-23T05:03:32.079Z,11.15
2022-08-23T05:06:00.894Z,11.45
2022-08-23T05:08:28.846Z,11.27
2022-08-23T05:10:59.964Z,11.52
2022-08-23T05:13:27.464Z,10.93
2022-08-23T05:15:55.324Z,10.77
2022-08-23T05:18:25.335Z,10.93
2022-08-23T05:20:54.732Z,10.10
2022-08-23T05:23:32.082Z,10.82
2022-08-23T05:26:00.997Z,10.63
2022-08-23T05:28:31.884Z,9.98
2022-08-23T05:31:11.363Z,10.10
2022-08-23T05:33:41.723Z,10.10
2022-08-23T05:36:11.375Z,10.88
2022-08-23T05:38:39.995Z,10.35
2022-08-23T05:41:08.902Z,10.93
2022-08-23T05:43:36.829Z,9.60
2022-08-23T05:46:12.808Z,10.07
2022-08-23T05:48:46.958Z,10.23
2022-08-23T05:51:22.454Z,10.73
2022-08-23T05:53:51.658Z,10.60
2022-08-23T05:56:41.402Z,10.40
2022-08-23T05:59:12.477Z,10.25
2022-08-23T06:01:40.597Z,11.45
2022-08-23T06:04:11.347Z,10.98
2022-08-23T06:06:41.582Z,12.27
2022-08-23T06:09:11.657Z,10.77
2022-08-23T06:11:39.229Z,10.32
2022-08-23T06:14:08.936Z,11.40
2022-08-23T06:16:40.704Z,11.50
2022-08-23T06:19:09.475Z,11.75
2022-08-23T06:21:39.334Z,9.80
2022-08-23T06:24:07.230Z,10.60
2022-08-23T06:26:38.725Z,10.95
2022-08-23T06:29:09.708Z,11.48
2022-08-23T06:31:45.492Z,10.90
2022-08-23T06:34:18.537Z,11.35
2022-08-23T06:36:58.040Z,10.88
2022-08-23T06:39:29.771Z,10.95
2022-08-23T06:42:10.136Z,11.57
2022-08-23T06:44:45.391Z,11.18
2022-08-23T06:47:14.199Z,10.43
2022-08-23T06:49:41.804Z,11.52
2022-08-23T06:52:27.510Z,11.20
2022-08-23T06:54:55.382Z,11.15
2022-08-23T06:57:22.867Z,10.35
2022-08-23T06:59:50.869Z,11.48
2022-08-23T07:02:19.663Z,11.80
2022-08-23T07:04:53.827Z,11.40
2022-08-23T07:07:22.490Z,11.68
2022-08-23T07:09:50.209Z,11.70
2022-08-23T07:12:19.817Z,10.85
2022-08-23T07:14:47.292Z,11.85
2022-08-23T07:17:15.593Z,11.85
2022-08-23T07:19:44.159Z,11.32
2022-08-23T07:22:11.981Z,10.93
2022-08-23T07:24:39.865Z,11.02
2022-08-23T07:27:09.514Z,10.85
2022-08-23T07:29:39.659Z,9.70
2022-08-23T07:32:08.028Z,11.98
2022-08-23T07:34:35.956Z,11.48
2022-08-23T07:37:04.421Z,11.63
2022-08-23T07:39:40.903Z,11.57
2022-08-23T07:42:23.496Z,10.75
2022-08-23T07:44:53.231Z,11.40
2022-08-23T07:47:21.941Z,10.68
2022-08-23T07:49:49.558Z,11.63
2022-08-23T07:52:18.502Z,11.38
2022-08-23T07:54:48.604Z,9.80
2022-08-23T07:57:19.903Z,11.20
2022-08-23T07:59:48.556Z,10.25
2022-08-23T08:02:16.389Z,9.73
2022-08-23T08:04:45.138Z,9.35
2022-08-23T08:07:21.160Z,9.18
2022-08-23T08:09:49.348Z,9.75
2022-08-23T08:12:17.732Z,9.15
2022-08-23T08:14:48.344Z,8.13
2022-08-23T08:17:18.268Z,8.70
2022-08-23T08:19:46.258Z,8.90
2022-08-23T08:24:47.004Z,8.32
2022-08-23T08:27:14.562Z,8.55
2022-08-23T08:29:43.819Z,8.35
2022-08-23T08:32:13.690Z,6.82
2022-08-23T08:34:42.186Z,7.80
2022-08-23T08:37:10.254Z,7.25
2022-08-23T08:39:45.344Z,6.35
2022-08-23T08:42:25.430Z,7.22
2022-08-23T08:44:57.892Z,5.60
2022-08-23T08:47:42.189Z,7.50
2022-08-23T08:50:17.892Z,6.35
2022-08-23T08:52:49.596Z,5.30
2022-08-23T08:55:20.128Z,5.68
2022-08-23T08:57:48.991Z,5.55
2022-08-23T09:00:23.913Z,5.47
2022-08-23T09:02:52.026Z,5.53
2022-08-23T09:05:31.441Z,5.55
2022-08-23T09:08:05.143Z,5.82
2022-08-23T09:10:58.215Z,5.87
2022-08-23T09:13:46.349Z,5.22
2022-08-23T09:16:36.574Z,5.35
2022-08-23T09:19:04.737Z,5.57
2022-08-23T09:22:00.819Z,5.20
2022-08-23T09:24:30.079Z,4.80
2022-08-23T09:26:58.726Z,5.45
2022-08-23T09:29:32.066Z,5.97
2022-08-23T09:32:02.377Z,5.62
2022-08-23T09:34:30.278Z,6.50
2022-08-23T09:37:22.143Z,5.43
2022-08-23T09:39:52.911Z,5.80
2022-08-23T09:42:27.224Z,6.60
2022-08-23T09:44:56.324Z,6.47
2022-08-23T09:47:44.000Z,6.85
2022-08-23T09:50:36.135Z,5.45
2022-08-23T09:53:07.849Z,5.00
2022-08-23T09:56:15.462Z,4.93
2022-08-23T09:58:46.860Z,5.18
2022-08-23T10:01:20.459Z,5.00
2022-08-23T10:04:07.141Z,5.60
2022-08-23T10:06:34.613Z,5.18
2022-08-23T10:09:05.543Z,4.57
2022-08-23T10:11:40.739Z,5.30
2022-08-23T10:14:09.792Z,4.85
2022-08-23T10:16:57.682Z,5.68
2022-08-23T10:19:38.519Z,4.70
2022-08-23T10:22:26.257Z,5.32
2022-08-23T10:25:06.096Z,4.50
2022-08-23T10:28:21.679Z,5.20
2022-08-23T10:30:52.533Z,5.20
2022-08-23T10:33:25.123Z,5.72
2022-08-23T10:36:03.474Z,5.20
2022-08-23T10:39:00.287Z,6.10
2022-08-23T10:41:34.866Z,6.07
2022-08-23T10:44:24.159Z,5.47
2022-08-23T10:47:01.808Z,5.22
2022-08-23T10:49:30.572Z,5.10
2022-08-23T10:52:04.941Z,5.90
2022-08-23T10:54:59.390Z,5.53
2022-08-23T10:57:39.136Z,4.85
2022-08-23T11:00:09.664Z,5.28
2022-08-23T11:02:57.685Z,4.53
2022-08-23T11:05:33.519Z,4.97
2022-08-23T11:08:06.055Z,5.22
2022-08-23T11:10:39.771Z,6.18
2022-08-23T11:13:13.222Z,5.53
2022-08-23T11:15:47.573Z,5.12
2022-08-23T11:18:33.869Z,5.78
2022-08-23T11:21:40.665Z,6.12
2022-08-23T11:24:08.940Z,6.03
2022-08-23T11:26:41.247Z,6.28
2022-08-23T11:29:12.409Z,5.70
2022-08-23T11:31:47.313Z,5.80
2022-08-23T11:34:35.645Z,5.65
2022-08-23T11:37:18.481Z,6.40
2022-08-23T11:39:58.780Z,6.47
2022-08-23T11:42:29.599Z,6.28
2022-08-23T11:44:57.619Z,7.15
2022-08-23T11:47:40.251Z,6.37
2022-08-23T11:50:38.456Z,6.00
2022-08-23T11:53:16.956Z,5.65
2022-08-23T11:56:04.869Z,5.45
2022-08-23T11:59:03.478Z,6.10
2022-08-23T12:01:38.854Z,5.50
2022-08-23T12:04:14.649Z,6.20
2022-08-23T12:06:56.047Z,6.10
2022-08-23T12:09:23.591Z,6.55
2022-08-23T12:11:57.068Z,6.25
2022-08-23T12:14:30.833Z,5.97
2022-08-23T12:17:26.112Z,6.12
2022-08-23T12:19:59.118Z,5.57
2022-08-23T12:22:34.683Z,5.60
2022-08-23T12:25:06.002Z,5.43
2022-08-23T12:27:41.608Z,5.68
2022-08-23T12:30:20.625Z,5.20
2022-08-23T12:32:57.605Z,5.20
2022-08-23T12:35:34.688Z,5.00
2022-08-23T12:38:10.752Z,5.05
2022-08-23T12:40:42.570Z,5.30
2022-08-23T12:43:17.360Z,5.60
2022-08-23T12:45:55.551Z,4.87
2022-08-23T12:48:25.714Z,5.65
2022-08-23T12:51:00.278Z,5.12
2022-08-23T12:53:45.145Z,4.65
2022-08-23T12:56:31.855Z,5.40
2022-08-23T12:59:02.392Z,5.10
2022-08-23T13:01:37.226Z,5.35
2022-08-23T13:04:13.221Z,6.10
2022-08-23T13:06:45.485Z,6.70
2022-08-23T13:09:17.589Z,6.68
2022-08-23T13:11:45.942Z,6.53
2022-08-23T13:14:34.377Z,6.55
2022-08-23T13:17:26.658Z,6.20
2022-08-23T13:20:12.421Z,6.37
2022-08-23T13:22:56.246Z,5.85
2022-08-23T13:25:31.938Z,5.78
2022-08-23T13:28:03.630Z,6.05
2022-08-23T13:30:38.446Z,5.93
2022-08-23T13:33:07.883Z,5.70
2022-08-23T13:35:43.591Z,6.07
2022-08-23T13:43:05.172Z,5.40
2022-08-23T13:45:49.752Z,5.25
2022-08-23T13:48:21.151Z,6.40
2022-08-23T13:50:48.778Z,5.87
2022-08-23T13:53:16.722Z,5.30
2022-08-23T13:55:55.781Z,4.97
2022-08-23T13:58:29.656Z,5.60
2022-08-23T14:00:58.877Z,5.93
2022-08-23T14:03:28.620Z,5.80
2022-08-23T14:05:56.022Z,5.05
2022-08-23T14:08:23.671Z,5.50
2022-08-23T14:10:51.539Z,5.32
2022-08-23T14:13:19.291Z,5.00
2022-08-23T14:18:34.812Z,5.00
2022-08-23T14:21:03.973Z,5.32
2022-08-23T14:23:31.612Z,5.32
2022-08-23T14:25:59.407Z,5.15
2022-08-23T14:28:29.714Z,4.70
2022-08-23T14:30:57.637Z,5.80
2022-08-23T14:33:25.419Z,5.65
2022-08-23T14:35:53.015Z,5.18
2022-08-23T14:38:20.536Z,5.50
2022-08-23T14:40:58.980Z,5.65
2022-08-23T14:43:27.455Z,5.75
2022-08-23T14:45:55.662Z,5.65
2022-08-23T14:48:25.224Z,5.40
2022-08-23T14:50:52.861Z,5.22
2022-08-23T14:53:24.969Z,5.32
2022-08-23T14:58:41.876Z,5.30
2022-08-23T15:01:09.988Z,5.70
2022-08-23T15:03:37.717Z,5.35
2022-08-23T15:06:05.396Z,4.47
2022-08-23T15:08:32.731Z,5.25
2022-08-23T15:13:55.656Z,5.55
2022-08-23T15:16:24.914Z,5.40
2022-08-23T15:18:53.471Z,5.00
2022-08-23T15:21:21.319Z,5.43
2022-08-23T15:23:48.788Z,5.00
2022-08-23T15:26:20.620Z,5.03
2022-08-23T15:28:48.036Z,4.75
2022-08-23T15:31:17.266Z,5.03
2022-08-23T15:33:44.923Z,4.97
2022-08-23T15:36:13.544Z,4.82
2022-08-23T15:38:44.844Z,5.25
2022-08-23T15:41:12.282Z,5.10
2022-08-23T15:43:40.243Z,5.05
2022-08-23T15:46:11.129Z,4.78
2022-08-23T15:48:48.709Z,5.22
2022-08-23T15:51:17.870Z,5.12
2022-08-23T15:53:45.651Z,5.00
2022-08-23T15:56:16.858Z,5.45
2022-08-23T15:58:44.537Z,5.35
2022-08-23T16:01:12.189Z,5.18
2022-08-23T16:03:42.380Z,4.30
2022-08-23T16:06:12.252Z,4.75
2022-08-23T16:08:42.316Z,4.87
2022-08-23T16:11:13.196Z,4.62
2022-08-23T16:13:43.112Z,4.70
2022-08-23T16:16:20.750Z,4.93
2022-08-23T16:18:49.196Z,4.30
2022-08-23T16:21:17.522Z,4.60
2022-08-23T16:23:45.103Z,4.93
2022-08-23T16:26:16.701Z,4.30
2022-08-23T16:28:50.987Z,4.70
2022-08-23T16:31:18.975Z,4.95
2022-08-23T16:33:47.879Z,4.95
2022-08-23T16:36:19.611Z,4.40
2022-08-23T16:38:49.628Z,4.68
2022-08-23T16:41:17.287Z,4.65
2022-08-23T16:43:44.591Z,4.12
2022-08-23T16:46:12.391Z,4.82
2022-08-23T16:48:39.752Z,4.43
2022-08-23T16:51:07.113Z,4.85
2022-08-23T16:53:34.880Z,4.32
2022-08-23T16:56:02.461Z,4.37
2022-08-23T16:58:29.900Z,4.50
2022-08-23T17:00:57.605Z,4.55
2022-08-23T17:03:27.211Z,4.12
2022-08-23T17:05:55.165Z,4.82
2022-08-23T17:08:22.870Z,4.25
2022-08-23T17:10:50.479Z,4.60
2022-08-23T17:13:18.619Z,4.10
2022-08-23T17:15:46.236Z,4.55
2022-08-23T17:18:13.572Z,3.85
2022-08-23T17:20:40.988Z,4.40
2022-08-23T17:23:08.947Z,4.20
2022-08-23T17:25:36.478Z,4.20
2022-08-23T17:28:05.099Z,3.83
2022-08-23T17:30:32.675Z,4.25
2022-08-23T17:33:00.708Z,3.92
2022-08-23T17:35:33.994Z,4.37
2022-08-23T17:38:04.311Z,4.18
2022-08-23T17:40:37.819Z,4.20
2022-08-23T17:43:05.971Z,3.90
2022-08-23T17:45:40.138Z,4.07
2022-08-23T17:48:07.834Z,4.15
2022-08-23T17:50:35.225Z,3.90
2022-08-23T17:53:02.957Z,4.50
2022-08-23T17:55:36.089Z,4.05
2022-08-23T17:58:04.929Z,4.43
2022-08-23T18:00:34.184Z,4.10
2022-08-23T18:03:02.034Z,3.55
2022-08-23T18:05:30.226Z,4.00
2022-08-23T18:07:57.567Z,4.07
2022-08-23T18:10:25.369Z,3.85
2022-08-23T18:12:52.707Z,3.97
2022-08-23T18:15:20.420Z,4.12
2022-08-23T18:17:48.029Z,3.78
2022-08-23T18:20:16.532Z,3.85
2022-08-23T18:22:43.960Z,4.47
2022-08-23T18:25:13.373Z,3.62
2022-08-23T18:27:59.470Z,3.95
2022-08-23T18:30:27.184Z,4.00
2022-08-23T18:32:54.912Z,3.58
2022-08-23T18:35:22.429Z,3.70
2022-08-23T18:37:51.482Z,4.07
2022-08-23T18:40:18.993Z,3.92
2022-08-23T18:42:46.784Z,4.12
2022-08-23T18:45:14.528Z,3.85
2022-08-23T18:47:41.940Z,4.25
2022-08-23T18:50:11.001Z,3.67
2022-08-23T18:52:39.058Z,4.10
2022-08-23T18:55:06.960Z,3.95
2022-08-23T18:57:34.276Z,4.15
2022-08-23T19:00:02.316Z,3.85
2022-08-23T19:02:29.764Z,3.90
2022-08-23T19:04:57.303Z,3.22
2022-08-23T19:07:24.903Z,3.53
2022-08-23T19:09:52.260Z,4.03
2022-08-23T19:12:19.603Z,3.45
2022-08-23T19:14:47.229Z,3.92
2022-08-23T19:17:14.665Z,3.97
2022-08-23T19:19:42.069Z,4.47
2022-08-23T19:22:09.652Z,3.60
2022-08-23T19:24:37.253Z,3.85
2022-08-23T19:27:05.158Z,3.67
2022-08-23T19:29:33.064Z,3.97
2022-08-23T19:32:00.962Z,3.75
2022-08-23T19:34:28.520Z,3.90
2022-08-23T19:37:01.025Z,3.90
2022-08-23T19:39:29.606Z,3.90
2022-08-23T19:41:57.703Z,4.00
2022-08-23T19:44:25.039Z,3.65
2022-08-23T19:46:52.667Z,4.15
2022-08-23T19:49:20.313Z,3.60
2022-08-23T19:51:47.658Z,3.95
2022-08-23T19:54:15.038Z,4.18
2022-08-23T19:56:57.545Z,3.55
2022-08-23T19:59:28.554Z,3.60
2022-08-23T20:01:58.666Z,3.77
2022-08-23T20:04:29.012Z,3.80
2022-08-23T20:06:57.706Z,4.07
2022-08-23T20:09:26.636Z,3.70
2022-08-23T20:11:54.243Z,3.90
2022-08-23T20:14:22.848Z,3.83
2022-08-23T20:16:50.843Z,3.65
2022-08-23T20:19:18.623Z,4.62
2022-08-23T20:21:46.300Z,4.20
2022-08-23T20:24:14.435Z,4.87
2022-08-23T20:26:45.165Z,3.87
2022-08-23T20:29:16.847Z,3.65
2022-08-23T20:34:17.170Z,3.67
2022-08-23T20:36:45.854Z,3.95
2022-08-23T20:39:13.301Z,3.60
2022-08-23T20:41:41.116Z,3.50
2022-08-23T20:44:09.305Z,3.72
2022-08-23T20:46:36.899Z,3.50
2022-08-23T20:49:05.140Z,4.12
2022-08-23T20:51:34.848Z,3.78
2022-08-23T20:54:06.359Z,4.50
2022-08-23T20:56:34.528Z,4.25
2022-08-23T20:59:01.967Z,4.00
2022-08-23T21:01:29.320Z,3.50
2022-08-23T21:03:56.996Z,4.07
2022-08-23T21:06:30.105Z,3.83
2022-08-23T21:09:00.000Z,4.35
2022-08-23T21:11:28.719Z,4.32
2022-08-23T21:13:57.356Z,3.85
2022-08-23T21:16:25.743Z,4.15
2022-08-23T21:18:55.435Z,4.53
2022-08-23T21:21:24.422Z,4.55
2022-08-23T21:23:52.448Z,4.37
2022-08-23T21:26:21.917Z,4.30
2022-08-23T21:28:50.528Z,4.12
2022-08-23T21:31:23.832Z,4.15
2022-08-23T21:33:51.808Z,4.47
2022-08-23T21:36:20.558Z,4.68
2022-08-23T21:38:48.255Z,4.62
2022-08-23T21:41:32.468Z,4.05
2022-08-23T21:44:00.239Z,4.15
2022-08-23T21:46:27.638Z,4.30
2022-08-23T21:48:55.156Z,4.62
2022-08-23T21:51:22.901Z,4.47
2022-08-23T21:53:50.311Z,4.85
2022-08-23T21:56:19.130Z,4.40
2022-08-23T21:58:47.385Z,4.30
2022-08-23T22:01:18.620Z,4.47
2022-08-23T22:03:46.391Z,4.82
2022-08-23T22:06:15.574Z,4.68
2022-08-23T22:08:43.676Z,4.62
2022-08-23T22:11:12.699Z,5.10
2022-08-23T22:13:41.034Z,4.90
2022-08-23T22:16:09.020Z,5.03
2022-08-23T22:18:36.799Z,5.00
2022-08-23T22:21:04.527Z,5.50
2022-08-23T22:23:32.468Z,4.37
2022-08-23T22:26:05.500Z,4.50
2022-08-23T22:28:33.395Z,4.47
2022-08-23T22:31:02.184Z,5.15
2022-08-23T22:33:29.849Z,4.80
2022-08-23T22:36:10.744Z,5.32
2022-08-23T22:38:39.033Z,5.35
2022-08-23T22:41:06.471Z,5.43
2022-08-23T22:43:33.879Z,5.28
2022-08-23T22:46:03.374Z,5.32
2022-08-23T22:48:32.191Z,5.40
2022-08-23T22:51:27.615Z,5.40
2022-08-23T22:53:58.179Z,5.70
2022-08-23T22:56:30.093Z,5.65
2022-08-23T23:01:26.816Z,5.10
2022-08-23T23:03:56.250Z,5.43
2022-08-23T23:06:24.223Z,5.57
2022-08-23T23:08:52.398Z,5.30
2022-08-23T23:11:21.146Z,6.07
2022-08-23T23:13:49.416Z,5.43
2022-08-23T23:16:22.745Z,6.05
2022-08-23T23:19:09.082Z,5.60
2022-08-23T23:21:42.788Z,5.57
2022-08-23T23:24:12.197Z,6.30
2022-08-23T23:26:39.731Z,5.47
2022-08-23T23:29:07.623Z,5.97
2022-08-23T23:31:36.332Z,5.62
2022-08-23T23:34:04.575Z,6.37
2022-08-23T23:36:32.095Z,5.45
2022-08-23T23:38:59.764Z,5.80
2022-08-23T23:41:27.353Z,5.45
2022-08-23T23:43:54.738Z,6.03
2022-08-23T23:46:23.408Z,6.30
2022-08-23T23:48:51.246Z,6.68
2022-08-23T23:51:29.685Z,6.85
2022-08-23T23:53:59.248Z,6.28
2022-08-23T23:56:29.883Z,6.63
2022-08-23T23:58:58.657Z,7.15
